createdAt,value
2022-07-29T00:02:16.661Z,47.20
2022-07-29T00:05:22.282Z,46.67
2022-07-29T00:08:25.040Z,47.09
2022-07-29T00:11:31.822Z,47.56
2022-07-29T00:14:34.952Z,47.82
2022-07-29T00:17:38.194Z,47.78
2022-07-29T00:20:45.076Z,47.56
2022-07-29T00:23:48.111Z,47.66
2022-07-29T00:26:51.067Z,47.82
2022-07-29T00:29:54.215Z,47.84
2022-07-29T00:32:58.301Z,47.99
2022-07-29T00:36:01.401Z,47.96
2022-07-29T00:39:04.866Z,47.92
2022-07-29T00:42:08.842Z,48.24
2022-07-29T00:45:12.147Z,48.56
2022-07-29T00:48:15.317Z,48.73
2022-07-29T00:51:18.338Z,49.18
2022-07-29T00:54:24.729Z,49.10
2022-07-29T00:57:27.571Z,49.13
2022-07-29T01:00:31.178Z,49.03
2022-07-29T01:03:34.089Z,48.49
2022-07-29T01:06:37.276Z,48.43
2022-07-29T01:09:46.785Z,48.38
2022-07-29T01:12:51.839Z,48.49
2022-07-29T01:15:58.620Z,48.56
2022-07-29T01:19:11.602Z,48.74
2022-07-29T01:22:43.731Z,48.39
2022-07-29T01:25:53.282Z,48.66
2022-07-29T01:29:09.713Z,48.02
2022-07-29T01:32:28.813Z,48.35
2022-07-29T01:35:40.056Z,48.46
2022-07-29T01:38:45.379Z,48.69
2022-07-29T01:42:01.513Z,49.00
2022-07-29T01:45:29.821Z,49.29
2022-07-29T01:48:56.955Z,49.28
2022-07-29T01:52:14.910Z,49.50
2022-07-29T02:02:48.665Z,49.29
2022-07-29T02:05:52.638Z,50.40
2022-07-29T02:08:57.038Z,50.62
2022-07-29T02:12:02.425Z,50.73
2022-07-29T02:15:07.606Z,51.21
2022-07-29T02:18:18.985Z,50.87
2022-07-29T02:21:25.774Z,51.75
2022-07-29T02:24:29.950Z,51.68
2022-07-29T02:27:35.113Z,52.01
2022-07-29T02:30:41.340Z,51.74
2022-07-29T02:33:44.384Z,51.56
2022-07-29T02:36:48.872Z,52.28
2022-07-29T02:39:54.624Z,52.64
2022-07-29T02:42:57.681Z,52.88
2022-07-29T02:46:02.090Z,53.28
2022-07-29T02:49:13.058Z,52.75
2022-07-29T02:52:21.542Z,53.00
2022-07-29T02:55:28.871Z,53.33
2022-07-29T02:58:48.447Z,54.03
2022-07-29T03:01:53.147Z,53.52
2022-07-29T03:04:56.831Z,53.13
2022-07-29T03:12:00.883Z,53.68
2022-07-29T03:23:54.719Z,53.63
2022-07-29T03:26:58.094Z,53.64
2022-07-29T03:30:00.838Z,53.43
2022-07-29T03:33:04.045Z,53.49
2022-07-29T03:36:16.375Z,53.41
2022-07-29T03:39:22.976Z,53.98
2022-07-29T03:42:31.094Z,53.81
2022-07-29T03:50:10.675Z,53.52
2022-07-29T03:53:14.286Z,53.55
2022-07-29T03:56:18.361Z,53.10
2022-07-29T03:59:22.689Z,52.86
2022-07-29T04:02:30.519Z,52.95
2022-07-29T04:05:34.408Z,53.28
2022-07-29T04:08:37.266Z,52.75
2022-07-29T04:12:02.037Z,52.48
2022-07-29T04:15:07.703Z,52.49
2022-07-29T04:18:10.928Z,52.84
2022-07-29T04:21:13.815Z,52.39
2022-07-29T04:24:17.850Z,52.79
2022-07-29T04:27:21.107Z,53.25
2022-07-29T04:30:24.342Z,52.63
2022-07-29T04:33:27.255Z,52.84
2022-07-29T04:36:30.327Z,52.57
2022-07-29T04:39:33.139Z,51.90
2022-07-29T04:42:36.254Z,51.82
2022-07-29T04:45:49.499Z,51.89
2022-07-29T04:48:52.639Z,51.91
2022-07-29T04:51:55.502Z,51.26
2022-07-29T04:54:59.347Z,50.97
2022-07-29T04:58:02.249Z,51.26
2022-07-29T05:01:06.157Z,50.54
2022-07-29T05:04:12.177Z,50.83
2022-07-29T05:07:16.647Z,50.32
2022-07-29T05:10:19.590Z,50.12
2022-07-29T05:13:23.778Z,50.56
2022-07-29T05:16:26.939Z,50.25
2022-07-29T05:19:33.824Z,50.20
2022-07-29T05:22:49.921Z,49.95
2022-07-29T05:25:55.168Z,49.44
2022-07-29T05:29:43.794Z,49.08
2022-07-29T05:32:59.370Z,48.87
2022-07-29T05:36:18.609Z,49.17
2022-07-29T05:39:47.621Z,48.33
2022-07-29T05:43:38.930Z,48.51
2022-07-29T05:46:42.059Z,48.61
2022-07-29T05:49:44.977Z,48.42
2022-07-29T05:52:56.728Z,47.89
2022-07-29T06:00:35.544Z,47.70
2022-07-29T06:03:41.746Z,47.30
2022-07-29T06:06:44.691Z,46.60
2022-07-29T06:09:47.957Z,46.59
2022-07-29T06:13:21.463Z,45.86
2022-07-29T06:20:26.958Z,45.56
2022-07-29T06:23:43.921Z,44.99
2022-07-29T06:26:47.827Z,44.57
2022-07-29T06:29:50.965Z,43.94
2022-07-29T06:32:54.056Z,43.59
2022-07-29T06:35:58.792Z,43.42
2022-07-29T06:39:02.832Z,43.56
2022-07-29T06:42:09.570Z,43.72
2022-07-29T06:45:13.065Z,43.12
2022-07-29T06:48:17.776Z,43.07
2022-07-29T06:55:24.697Z,42.12
2022-07-29T06:58:31.040Z,43.14
2022-07-29T07:01:35.284Z,42.18
2022-07-29T07:04:38.627Z,41.44
2022-07-29T07:07:41.928Z,41.63
2022-07-29T07:10:45.229Z,41.17
2022-07-29T07:13:48.073Z,42.07
2022-07-29T07:16:52.713Z,41.16
2022-07-29T07:19:59.119Z,41.65
2022-07-29T07:23:02.444Z,40.79
2022-07-29T07:26:07.001Z,42.16
2022-07-29T07:29:10.194Z,40.78
2022-07-29T07:32:14.598Z,40.09
2022-07-29T07:36:02.001Z,39.91
2022-07-29T07:39:54.959Z,40.16
2022-07-29T07:45:12.438Z,39.40
2022-07-29T07:53:56.559Z,41.67
2022-07-29T07:57:18.367Z,41.55
2022-07-29T08:00:24.999Z,41.34
2022-07-29T08:03:42.254Z,40.93
2022-07-29T08:15:21.090Z,39.67
2022-07-29T08:18:31.177Z,38.92
2022-07-29T08:21:43.797Z,38.70
2022-07-29T08:25:07.226Z,38.64
2022-07-29T08:40:01.489Z,37.63
2022-07-29T08:47:43.768Z,36.99
2022-07-29T08:50:54.239Z,36.52
2022-07-29T08:54:32.552Z,36.65
2022-07-29T08:57:51.987Z,36.05
2022-07-29T09:01:47.389Z,36.70
2022-07-29T09:10:21.512Z,35.24
2022-07-29T09:13:37.104Z,36.26
2022-07-29T09:16:53.101Z,36.98
2022-07-29T09:20:10.465Z,36.01
2022-07-29T09:23:23.971Z,35.73
2022-07-29T09:26:32.985Z,35.89
2022-07-29T09:29:36.424Z,35.93
2022-07-29T09:33:02.525Z,35.96
2022-07-29T09:37:17.922Z,36.11
2022-07-29T09:44:12.788Z,35.59
2022-07-29T09:47:18.252Z,35.07
2022-07-29T09:50:25.111Z,35.60
2022-07-29T09:53:39.162Z,35.68
2022-07-29T09:56:43.567Z,34.96
2022-07-29T10:00:08.174Z,34.81
2022-07-29T10:03:16.778Z,34.77
2022-07-29T10:06:21.198Z,34.17
2022-07-29T10:09:25.403Z,34.19
2022-07-29T10:12:32.700Z,34.05
2022-07-29T10:15:42.070Z,33.45
2022-07-29T10:18:45.955Z,32.74
2022-07-29T10:21:49.857Z,32.37
2022-07-29T10:24:53.173Z,32.43
2022-07-29T10:27:56.389Z,31.62
2022-07-29T10:31:03.530Z,31.61
2022-07-29T10:34:22.513Z,32.21
2022-07-29T10:37:56.903Z,32.09
2022-07-29T10:41:27.764Z,32.41
2022-07-29T10:44:35.643Z,32.01
2022-07-29T10:47:40.042Z,30.98
2022-07-29T10:51:00.054Z,30.34
2022-07-29T10:54:06.756Z,29.56
2022-07-29T10:57:53.057Z,30.45
2022-07-29T11:00:51.827Z,30.61
2022-07-29T11:03:57.268Z,30.48
2022-07-29T11:07:00.033Z,30.66
2022-07-29T11:10:13.049Z,29.91
2022-07-29T11:13:54.050Z,29.88
2022-07-29T11:17:07.029Z,29.88
2022-07-29T11:20:49.695Z,30.29
2022-07-29T11:24:28.826Z,30.14
2022-07-29T11:27:40.905Z,30.86
2022-07-29T11:31:05.585Z,28.55
2022-07-29T11:34:21.168Z,28.03
2022-07-29T11:37:27.971Z,27.60
2022-07-29T11:40:31.911Z,28.06
2022-07-29T11:43:58.587Z,27.20
2022-07-29T11:47:02.483Z,26.52
2022-07-29T12:08:58.402Z,26.68
2022-07-29T12:12:05.357Z,25.81
2022-07-29T12:27:29.278Z,25.54
2022-07-29T12:30:41.610Z,25.92
2022-07-29T12:34:28.226Z,23.93
2022-07-29T12:37:42.559Z,24.77
2022-07-29T12:40:49.428Z,23.97
2022-07-29T12:43:56.391Z,25.23
2022-07-29T12:47:07.201Z,24.23
2022-07-29T12:50:11.116Z,23.88
2022-07-29T12:53:15.097Z,23.13
2022-07-29T12:56:42.302Z,22.37
2022-07-29T13:00:40.995Z,22.02
2022-07-29T13:04:10.739Z,21.80
2022-07-29T13:28:57.758Z,24.20
2022-07-29T13:36:37.654Z,20.32
2022-07-29T13:40:00.796Z,21.85
2022-07-29T13:43:07.590Z,20.47
2022-07-29T13:46:12.980Z,19.23
2022-07-29T13:52:46.138Z,19.22
2022-07-29T13:55:49.071Z,18.96
2022-07-29T13:58:52.073Z,19.16
2022-07-29T14:01:56.010Z,19.65
2022-07-29T14:04:59.692Z,19.87
2022-07-29T14:08:04.375Z,20.82
2022-07-29T14:11:08.489Z,21.58
2022-07-29T14:14:11.754Z,23.28
2022-07-29T14:17:16.349Z,23.50
2022-07-29T14:20:23.658Z,23.26
2022-07-29T14:23:27.649Z,23.48
2022-07-29T14:26:31.079Z,22.52
2022-07-29T14:29:38.042Z,22.91
2022-07-29T14:32:42.199Z,22.93
2022-07-29T14:35:46.104Z,21.83
2022-07-29T14:38:48.977Z,22.46
2022-07-29T14:41:52.638Z,21.15
2022-07-29T14:44:55.570Z,19.26
2022-07-29T14:52:56.241Z,18.72
2022-07-29T14:56:35.330Z,19.72
2022-07-29T14:59:34.249Z,20.02
2022-07-29T15:02:59.704Z,20.54
2022-07-29T15:06:01.002Z,19.73
2022-07-29T15:09:04.436Z,18.96
2022-07-29T15:12:09.120Z,18.60
2022-07-29T15:15:13.481Z,18.61
2022-07-29T15:18:16.638Z,19.98
2022-07-29T15:21:29.022Z,20.40
2022-07-29T15:25:05.649Z,21.00
2022-07-29T15:32:18.371Z,23.19
2022-07-29T16:20:28.510Z,19.07
2022-07-29T16:23:32.431Z,23.09
2022-07-29T16:26:35.784Z,23.00
2022-07-29T16:29:39.778Z,23.78
2022-07-29T16:32:43.194Z,23.84
2022-07-29T16:35:46.350Z,24.94
2022-07-29T16:38:49.919Z,25.42
2022-07-29T16:41:56.976Z,25.56
2022-07-29T16:45:04.616Z,25.69
2022-07-29T16:48:23.239Z,26.05
2022-07-29T16:55:32.300Z,26.53
2022-07-29T16:58:35.342Z,28.92
2022-07-29T17:01:39.000Z,30.87
2022-07-29T17:09:06.333Z,32.02
2022-07-29T17:12:27.646Z,31.87
2022-07-29T17:15:30.451Z,32.58
2022-07-29T17:18:39.674Z,33.21
2022-07-29T17:21:47.337Z,34.44
2022-07-29T17:25:05.185Z,34.48
2022-07-29T17:28:08.071Z,34.73
2022-07-29T17:31:14.984Z,34.83
2022-07-29T17:34:17.923Z,34.94
2022-07-29T17:37:23.579Z,35.21
2022-07-29T17:40:26.423Z,35.28
2022-07-29T17:43:29.585Z,34.76
2022-07-29T17:46:32.525Z,34.82
2022-07-29T17:49:36.731Z,35.53
2022-07-29T17:52:41.372Z,35.79
2022-07-29T17:55:46.270Z,35.53
2022-07-29T17:58:49.321Z,35.31
2022-07-29T18:01:53.348Z,35.88
2022-07-29T18:05:12.946Z,36.64
2022-07-29T18:08:17.158Z,36.62
2022-07-29T18:11:25.547Z,37.15
2022-07-29T18:14:43.620Z,37.21
2022-07-29T18:18:00.241Z,37.42
2022-07-29T18:21:04.134Z,37.14
2022-07-29T18:24:07.400Z,37.34
2022-07-29T18:27:10.868Z,37.59
2022-07-29T18:30:17.943Z,37.86
2022-07-29T18:33:22.336Z,38.31
2022-07-29T18:36:25.855Z,38.71
2022-07-29T18:39:28.727Z,38.88
2022-07-29T18:42:32.126Z,39.24
2022-07-29T18:45:35.964Z,39.75
2022-07-29T18:48:42.952Z,40.40
2022-07-29T18:51:47.169Z,41.19
2022-07-29T18:54:50.270Z,41.40
2022-07-29T18:57:59.029Z,41.86
2022-07-29T19:01:02.417Z,42.88
2022-07-29T19:04:05.483Z,43.27
2022-07-29T19:07:09.076Z,43.39
2022-07-29T19:10:12.431Z,43.58
2022-07-29T19:13:15.533Z,43.74
2022-07-29T19:16:18.668Z,43.97
2022-07-29T19:19:21.826Z,47.18
2022-07-29T19:30:54.301Z,47.87
2022-07-29T19:33:58.648Z,50.59
2022-07-29T19:37:07.680Z,54.33
2022-07-29T19:40:12.747Z,57.12
2022-07-29T19:43:50.354Z,55.21
2022-07-29T19:46:50.994Z,54.98
2022-07-29T19:49:53.817Z,55.47
2022-07-29T19:52:57.227Z,55.25
2022-07-29T19:56:00.207Z,54.87
2022-07-29T19:59:13.191Z,54.73
2022-07-29T20:06:31.185Z,54.68
2022-07-29T20:09:34.961Z,54.40
2022-07-29T20:12:38.800Z,53.74
2022-07-29T20:23:44.603Z,49.77
2022-07-29T20:27:04.124Z,49.25
2022-07-29T20:30:23.826Z,48.62
2022-07-29T20:33:27.118Z,48.63
2022-07-29T20:37:04.155Z,48.52
2022-07-29T20:40:12.562Z,48.44
2022-07-29T20:43:30.081Z,48.54
2022-07-29T20:46:54.196Z,48.55
2022-07-29T20:49:57.206Z,48.83
2022-07-29T20:52:59.982Z,48.40
2022-07-29T20:56:07.044Z,48.83
2022-07-29T20:59:11.817Z,49.45
2022-07-29T21:02:15.117Z,50.17
2022-07-29T21:05:18.073Z,50.94
2022-07-29T21:08:32.781Z,51.49
2022-07-29T21:11:43.459Z,51.90
2022-07-29T21:14:48.747Z,52.09
2022-07-29T21:17:59.636Z,52.78
2022-07-29T21:21:04.673Z,52.62
2022-07-29T21:24:08.609Z,52.74
2022-07-29T21:27:34.003Z,53.07
2022-07-29T21:30:40.414Z,53.18
2022-07-29T21:33:45.649Z,53.82
2022-07-29T21:36:58.514Z,53.91
2022-07-29T21:40:01.840Z,54.01
2022-07-29T21:43:17.607Z,54.14
2022-07-29T21:46:24.516Z,54.25
2022-07-29T21:49:28.155Z,54.92
2022-07-29T21:52:34.064Z,55.34
2022-07-29T21:55:40.696Z,55.90
2022-07-29T21:58:47.031Z,55.99
2022-07-29T22:01:49.981Z,56.00
2022-07-29T22:05:01.783Z,55.58
2022-07-29T22:08:05.045Z,55.64
2022-07-29T22:11:08.502Z,55.69
2022-07-29T22:14:12.405Z,55.91
2022-07-29T22:17:21.267Z,55.97
2022-07-29T22:20:27.959Z,56.20
2022-07-29T22:23:34.312Z,56.81
2022-07-29T22:26:37.485Z,57.25
2022-07-29T22:29:40.634Z,57.23
2022-07-29T22:32:45.805Z,57.25
2022-07-29T22:35:49.270Z,57.40
2022-07-29T22:38:54.671Z,57.60
2022-07-29T22:41:58.073Z,57.50
2022-07-29T22:45:00.897Z,57.66
2022-07-29T22:48:04.309Z,57.74
2022-07-29T22:51:10.252Z,57.59
2022-07-29T22:54:13.489Z,57.87
2022-07-29T22:57:18.089Z,57.70
2022-07-29T23:00:21.652Z,58.24
2022-07-29T23:03:27.954Z,58.24
2022-07-29T23:06:31.172Z,58.48
2022-07-29T23:09:36.541Z,58.44
2022-07-29T23:12:42.660Z,58.66
2022-07-29T23:15:48.767Z,58.37
2022-07-29T23:18:53.240Z,58.72
2022-07-29T23:21:57.023Z,58.63
2022-07-29T23:25:03.033Z,58.53
2022-07-29T23:28:18.886Z,58.56
2022-07-29T23:31:22.520Z,58.40
2022-07-29T23:34:25.379Z,58.54
2022-07-29T23:37:28.802Z,58.49
2022-07-29T23:40:47.774Z,58.85
2022-07-29T23:43:50.977Z,58.87
2022-07-29T23:47:00.786Z,59.01
2022-07-29T23:50:11.198Z,59.09
2022-07-29T23:53:14.193Z,59.38
2022-07-29T23:56:17.377Z,59.79
2022-07-29T23:59:24.870Z,59.80
